1959 Tropical Low NOT_NAMED (1959359S12133)


IBTrACS version v04r00. Visit IBTrACS website for data access.
Please direct all questions to the IBTrACS Q and A forum

Storm track - Intensity - Wind Radii - Intensity Data - Source Data - All data

Summary Information

Storm ID 1959359S12133
Start Dec 24 12Z
Landfall Dec 26 05Z, Jan 1 06Z
Max Intensity 985 mb (Dec 25 05Z)
End Jan 3 00Z
ATCF IDs SH061960
Track status Best track data.

Storm track plot

Map of storm track

Intensity plots

Map of storm track

Radial wind information

No radial wind information for this storm


Position and Intensity Table

BASIN ISO_TIME_________ NATURE LAT LON WMO PRES BOM PRES
degrees north degrees east mb mb
SI 1959-12-24 12:00:00 TS -12.40 133.40
SI 15:00:00 TS -12.35 133.47
SI 18:00:00 TS -12.32 133.63
SI 21:00:00 TS -12.33 133.85 992 992
SI 23:30:00 TS -12.40 134.22 992 992
SI 1959-12-25 00:00:00 TS -12.43 134.20 991
SI 03:00:00 TS -12.50 134.83 987
SP 05:00:00 TS -12.52 135.37 985 985
SP 06:00:00 TS -12.51 135.66 985
SP 08:00:00 TS -12.54 136.32 985 985
SP 09:00:00 TS -12.60 136.65 985
SP 11:00:00 TS -12.74 137.30 988 988
SP 12:00:00 TS -12.78 137.58 987
SP 15:00:00 TS -12.83 138.33 986
SP 17:00:00 TS -12.92 138.83 986 986
SP 18:00:00 TS -13.00 139.11 986
SP 20:00:00 TS -13.20 139.69 986 986
SP 21:00:00 TS -13.30 139.97 986
SP 23:00:00 TS -13.52 140.51 986 986
SP 1959-12-26 00:00:00 TS -13.62 140.74 986
SP 03:00:00 TS -13.95 141.34 986
SP 05:00:00 TS -14.17 141.69 986 986
SP 06:00:00 TS -14.26 141.85 986
SP 07:00:00 TS -14.37 142.05 986 986
SP 08:00:00 TS -14.51 142.26 986 986
SP 09:00:00 TS -14.61 142.47 986
SP 11:00:00 TS -14.76 142.83 988 988
SP 12:00:00 TS -14.81 142.96 989
SP 14:00:00 TS -14.90 143.10 992 992
SP 15:00:00 TS -14.95 143.15 992
SP 17:00:00 TS -15.05 143.22 992 992
SP 18:00:00 TS -15.11 143.22 992
SP 21:00:00 TS -15.34 143.17 992
SP 23:00:00 TS -15.47 143.15 993 993
SP 1959-12-27 00:00:00 TS -15.51 143.19 993
SP 03:00:00 TS -15.52 143.51 993
SP 06:00:00 TS -15.46 143.96 994
SP 09:00:00 TS -15.37 144.42 995
SP 11:00:00 TS -15.33 144.71 996 996
SP 12:00:00 TS -15.32 144.85 996
SP 15:00:00 TS -15.37 145.22 996
SP 17:00:00 TS -15.45 145.45 997 997
SP 18:00:00 TS -15.50 145.57 997
SP 21:00:00 TS -15.67 145.93 997
SP 23:00:00 TS -15.79 146.16 997 997
SP 1959-12-28 00:00:00 TS -15.85 146.27 997
SP 03:00:00 TS -15.99 146.60 997
SP 05:00:00 TS -16.09 146.82 998 998
SP 06:00:00 TS -16.13 146.93 997
SP 09:00:00 TS -16.28 147.28 997
SP 11:00:00 TS -16.42 147.50 997 997
SP 12:00:00 TS -16.50 147.60 997
SP 15:00:00 TS -16.81 147.86 997
SP 17:00:00 TS -17.04 148.03 997 997
SP 18:00:00 TS -17.16 148.11 997
SP 21:00:00 TS -17.52 148.35 997
SP 23:00:00 TS -17.70 148.54 997 997
SP 1959-12-29 00:00:00 TS -17.77 148.65 996
SP 03:00:00 TS -17.86 149.03 995
SP 05:00:00 TS -17.87 149.34 995 995
SP 06:00:00 TS -17.88 149.51 995
SP 08:00:00 TS -17.91 149.85 995 995
SP 09:00:00 TS -17.94 150.00 995
SP 11:00:00 TS -17.99 150.29 995 995
SP 12:00:00 TS -18.02 150.44 994
SP 15:00:00 TS -18.13 150.88 994
SP 17:00:00 TS -18.20 151.18 994 994
SP 18:00:00 TS -18.22 151.33 993
SP 21:00:00 TS -18.26 151.82 992
SP 23:00:00 TS -18.27 152.15 992 992
SP 1959-12-30 00:00:00 TS -18.28 152.33 991
SP 03:00:00 TS -18.32 152.88 990
SP 05:00:00 TS -18.34 153.25 990 990
SP 06:00:00 TS -18.35 153.42 990
SP 09:00:00 TS -18.35 153.93 990
SP 11:00:00 TS -18.34 154.28 990 990
SP 12:00:00 TS -18.33 154.47 990
SP 15:00:00 TS -18.30 155.07 990
SP 17:00:00 TS -18.27 155.49 990 990
SP 18:00:00 TS -18.25 155.69 990
SP 21:00:00 TS -18.18 156.30 990
SP 23:00:00 TS -18.10 156.73 990 990
SP 1959-12-31 00:00:00 TS -18.06 156.97 990
SP 03:00:00 TS -17.85 157.77 990
SP 05:00:00 TS -17.69 158.35 990 990
SP 06:00:00 TS -17.59 158.65 990
SP 09:00:00 TS -17.31 159.57 990
SP 11:00:00 TS -17.11 160.20 990 990
SP 12:00:00 TS -17.02 160.51 990
SP 15:00:00 TS -16.68 161.41 990
SP 17:00:00 TS -16.42 162.01 990 990
SP 18:00:00 TS -16.17 162.26 990
SP 21:00:00 TS -15.65 163.16 990
SP 23:00:00 TS -15.39 163.83 990 990
SP 1960-01-01 00:00:00 TS -15.20 164.20
SP 03:00:00 TS -15.34 165.47
SP 06:00:00 TS -15.73 166.83
SP 09:00:00 TS -16.31 168.21
SP 12:00:00 TS -17.00 169.50
SP 15:00:00 TS -17.67 170.62
SP 18:00:00 TS -18.38 171.59
SP 21:00:00 TS -19.09 172.46
SP 1960-01-02 00:00:00 TS -19.80 173.20
SP 03:00:00 TS -20.46 173.86
SP 06:00:00 TS -21.12 174.44
SP 09:00:00 TS -21.81 175.03
SP 12:00:00 TS -22.50 175.60
SP 15:00:00 TS -23.16 176.15
SP 18:00:00 TS -23.82 176.69
SP 21:00:00 TS -24.50 177.24
SP 1960-01-03 00:00:00 TS -25.20 177.80

Source Information

Agency Information
USA bsh061960.txt
TOKYO
CMA
HKO
NEWDELHI
REUNION
BOM IDCKMSTM0S.csv:Line=2926:unnamed
NADI
WELLINGTON
DS824 s_hem.dat:783:06S
TD9636 cons_worldwide_trop_cyclone_18710101-19891231-006:Line=5539
TD9635
NEUMANN
MLC

All available IBTrACS Data

SEASON BASIN SUBBASIN ISO_TIME_________ NATURE LAT LON WMO PRES WMO AGENCY DIST2LAND LANDFALL IFLAG USA AGENCY USA ATCF_ID USA LAT USA LON USA SSHS BOM LAT BOM LON BOM PRES BOM PRES_METHOD DS824 LAT DS824 LON DS824 STAGE TD9636 LAT TD9636 LON TD9636 STAGE STORM SPEED STORM DIR
Year degrees north degrees east mb km km degrees north degrees east 1 degrees north degrees east mb degrees north degrees east degrees north degrees east kts degrees
1960 SI WA 1959-12-24 12:00:00 TS -12.40 133.40 0 0 O________OO___ jtwc_sh SH061960 -12.40 133.40 -1 -12.40 133.40 TC -12.40 133.40 1 2 53
1960 SI WA 15:00:00 TS -12.35 133.47 0 0 P________PP___ SH061960 -12.33 133.45 -1 -12.33 133.45 TC -12.38 133.52 1 2 71
1960 SI WA 18:00:00 TS -12.32 133.63 0 0 O________OP___ jtwc_sh SH061960 -12.30 133.60 -1 -12.30 133.60 TC -12.36 133.70 1 4 87
1960 SI WA 21:00:00 TS -12.33 133.85 992 bom 0 0 P_____O__PP___ SH061960 -12.33 133.94 -1 -12.20 132.50 992 -12.33 133.94 TC -12.37 134.00 1 6 98
1960 SI WA 23:30:00 TS -12.40 134.22 992 bom 0 0 P_____O__PP___ SH061960 -12.39 134.39 -1 -12.50 133.20 992 -12.39 134.39 TC -12.39 134.40 1 7 107
1960 SI WA 1959-12-25 00:00:00 TS -12.43 134.20 0 0 O_____P__OO___ jtwc_sh SH061960 -12.40 134.50 -1 -12.54 133.32 991 -12.40 134.50 TC -12.40 134.50 1 10 99
1960 SI WA 03:00:00 TS -12.50 134.83 0 0 P_____P__PP___ SH061960 -12.49 135.28 -1 -12.58 133.96 987 -12.49 135.28 TC -12.47 135.22 1 14 94
1960 SP EA 05:00:00 TS -12.52 135.37 985 bom 0 0 P_____O__PP___ SH061960 -12.56 135.89 -1 -12.50 134.50 985 4 -12.56 135.89 TC -12.53 135.80 1 16 91
1960 SP EA 06:00:00 TS -12.51 135.66 0 0 O_____P__OP___ jtwc_sh SH061960 -12.60 136.20 -1 -12.40 134.88 985 -12.60 136.20 TC -12.56 136.11 1 18 92
1960 SP EA 08:00:00 TS -12.54 136.32 985 bom 0 0 P_____O__PP___ SH061960 -12.67 136.81 -1 -12.30 135.70 985 -12.67 136.81 TC -12.64 136.74 1 20 95
1960 SP EA 09:00:00 TS -12.60 136.65 0 0 P_____P__PP___ SH061960 -12.70 137.12 -1 -12.43 136.10 985 -12.70 137.12 TC -12.68 137.06 1 19 102
1960 SP EA 11:00:00 TS -12.74 137.30 988 bom 54 58 P_____O__PP___ SH061960 -12.77 137.71 -1 -12.80 136.80 988 -12.77 137.71 TC -12.76 137.70 1 18 101
1960 SP EA 12:00:00 TS -12.78 137.58 85 85 O_____P__OO___ jtwc_sh SH061960 -12.80 138.00 -1 -12.80 136.99 987 -12.80 138.00 TC -12.80 138.00 2 15 95
1960 SP EA 15:00:00 TS -12.83 138.33 151 151 P_____P__PP___ SH061960 -12.89 138.77 -1 -12.51 137.26 986 -12.89 138.77 TC -12.90 138.83 2 15 96
1960 SP EA 17:00:00 TS -12.92 138.83 986 bom 206 216 P_____O__PP___ SH061960 -12.96 139.26 -1 -12.50 137.60 986 -12.96 139.26 TC -12.97 139.36 2 16 102
1960 SP EA 18:00:00 TS -13.00 139.11 241 207 O_____P__OP___ jtwc_sh SH061960 -13.00 139.50 -1 -12.69 137.95 986 -13.00 139.50 TC -13.01 139.61 2 18 109
1960 SP EA 20:00:00 TS -13.20 139.69 986 bom 207 185 P_____O__PP___ SH061960 -13.09 140.02 -1 -13.20 138.80 986 -13.09 140.02 TC -13.10 140.11 2 18 110
1960 SP EA 21:00:00 TS -13.30 139.97 174 117 P_____P__PP___ SH061960 -13.13 140.27 -1 -13.44 139.25 986 -13.13 140.27 TC -13.14 140.34 2 17 111
1960 SP EA 23:00:00 TS -13.52 140.51 986 bom 117 92 P_____O__PP___ SH061960 -13.24 140.77 -1 -13.90 140.10 986 -13.24 140.77 TC -13.24 140.79 2 16 113
1960 SP EA 1959-12-26 00:00:00 TS -13.62 140.74 92 21 O_____P__OO___ jtwc_sh SH061960 -13.30 141.00 -1 -14.11 140.40 986 -13.30 141.00 TC -13.30 141.00 2 14 118
1960 SP EA 03:00:00 TS -13.95 141.34 21 0 P_____P__PP___ SH061960 -13.48 141.65 -1 -14.67 140.95 986 -13.48 141.65 TC -13.49 141.67 2 13 121
1960 SP EA 05:00:00 TS -14.17 141.69 986 bom 0 0 P_____O__PP___ SH061960 -13.62 142.03 -1 -15.00 141.20 986 -13.62 142.03 TC -13.63 142.07 2 12 122
1960 SP EA 06:00:00 TS -14.26 141.85 0 0 O_____P__OP___ jtwc_sh SH061960 -13.70 142.20 -1 -15.12 141.32 986 -13.70 142.20 TC -13.70 142.25 2 12 121
1960 SP EA 07:00:00 TS -14.37 142.05 986 bom 0 0 P_____O__PP___ SH061960 -13.77 142.38 -1 -15.30 141.50 986 -13.77 142.38 TC -13.78 142.42 2 14 122
1960 SP EA 08:00:00 TS -14.51 142.26 986 bom 0 0 P_____O__PP___ SH061960 -13.85 142.56 -1 -15.60 141.80 986 -13.85 142.56 TC -13.86 142.58 2 14 120
1960 SP EA 09:00:00 TS -14.61 142.47 0 0 P_____P__PP___ SH061960 -13.93 142.71 -1 -15.77 142.12 986 -13.93 142.71 TC -13.94 142.71 2 12 114
1960 SP EA 11:00:00 TS -14.76 142.83 988 bom 0 0 P_____O__PP___ SH061960 -14.11 142.94 -1 -15.80 142.70 988 -14.11 142.94 TC -14.11 142.93 2 10 113
1960 SP EA 12:00:00 TS -14.81 142.96 0 0 O_____P__OO___ jtwc_sh SH061960 -14.20 143.00 -1 -15.76 142.89 989 -14.20 143.00 TC -14.20 143.00 2 6 120
1960 SP EA 14:00:00 TS -14.90 143.10 992 bom 0 0 P_____O__PP___ SH061960 -14.40 142.98 -1 -15.60 143.20 992 -14.40 142.98 TC -14.41 143.01 2 5 127
1960 SP EA 15:00:00 TS -14.95 143.15 0 0 P_____P__PP___ SH061960 -14.50 142.92 -1 -15.55 143.44 992 -14.50 142.92 TC -14.52 142.97 2 4 141
1960 SP EA 17:00:00 TS -15.05 143.22 992 bom 0 0 P_____O__PP___ SH061960 -14.70 142.77 -1 -15.50 143.90 992 -14.70 142.77 TC -14.75 142.86 2 4 157
1960 SP EA 18:00:00 TS -15.11 143.22 0 0 O_____P__OP___ jtwc_sh SH061960 -14.80 142.70 -1 -15.51 144.02 992 -14.80 142.70 TC -14.85 142.79 2 4 192
1960 SP EA 21:00:00 TS -15.34 143.17 0 0 P_____P__PP___ SH061960 -15.11 142.55 -1 -15.67 144.06 992 -15.11 142.55 TC -15.13 142.62 2 4 191
1960 SP EA 23:00:00 TS -15.47 143.15 993 bom 0 0 P_____O__PP___ SH061960 -15.26 142.55 -1 -15.80 144.00 993 -15.26 142.55 TC -15.26 142.58 2 3 0
1960 SP EA 1959-12-27 00:00:00 TS -15.51 143.19 0 0 O_____P__OO___ jtwc_sh SH061960 -15.30 142.60 -1 -15.84 144.05 993 -15.30 142.60 TC -15.30 142.60 2 5 99
1960 SP EA 03:00:00 TS -15.52 143.51 0 0 P_____P__PP___ SH061960 -15.26 143.01 -1 -15.95 144.28 993 -15.26 143.01 TC -15.24 142.95 2 7 86
1960 SP EA 06:00:00 TS -15.46 143.96 0 0 O_____P__OP___ jtwc_sh SH061960 -15.10 143.60 -1 -16.03 144.56 994 -15.10 143.60 TC -15.08 143.48 2 9 80
1960 SP EA 09:00:00 TS -15.37 144.42 0 0 P_____P__PP___ SH061960 -14.91 144.15 -1 -16.08 144.84 995 -14.91 144.15 TC -14.90 144.09 2 9 80
1960 SP EA 11:00:00 TS -15.33 144.71 996 bom 0 0 P_____O__PP___ SH061960 -14.82 144.52 -1 -16.10 145.00 996 -14.82 144.52 TC -14.82 144.50 2 8 83
1960 SP EA 12:00:00 TS -15.32 144.85 0 0 O_____P__OO___ jtwc_sh SH061960 -14.80 144.70 -1 -16.10 145.05 996 -14.80 144.70 TC -14.80 144.70 1 7 95
1960 SP EA 15:00:00 TS -15.37 145.22 0 0 P_____P__PP___ SH061960 -14.90 145.21 -1 -16.09 145.20 996 -14.90 145.21 TC -14.89 145.20 1 7 102
1960 SP EA 17:00:00 TS -15.45 145.45 997 bom 15 24 P_____O__PP___ SH061960 -15.03 145.54 -1 -16.10 145.30 997 -15.03 145.54 TC -15.00 145.53 1 7 110
1960 SP EA 18:00:00 TS -15.50 145.57 31 31 O_____P__OP___ jtwc_sh SH061960 -15.10 145.70 -1 -16.12 145.36 997 -15.10 145.70 TC -15.06 145.69 1 8 115
1960 SP EA 21:00:00 TS -15.67 145.93 58 58 P_____P__PP___ SH061960 -15.30 146.16 -1 -16.21 145.57 997 -15.30 146.16 TC -15.28 146.15 1 8 117
1960 SP EA 23:00:00 TS -15.79 146.16 997 bom 82 82 P_____O__PP___ SH061960 -15.44 146.45 -1 -16.30 145.70 997 -15.44 146.45 TC -15.43 146.45 1 8 119
1960 SP EA 1959-12-28 00:00:00 TS -15.85 146.27 91 88 O_____P__OO___ jtwc_sh SH061960 -15.50 146.60 -1 -16.35 145.75 997 -15.50 146.60 TC -15.50 146.60 1 7 116
1960 SP EA 03:00:00 TS -15.99 146.60 118 118 P_____P__PP___ SH061960 -15.65 147.07 -1 -16.50 145.88 997 -15.65 147.07 TC -15.67 147.04 1 7 114
1960 SP EA 05:00:00 TS -16.09 146.82 998 bom 138 138 P_____O__PP___ SH061960 -15.75 147.36 -1 -16.60 146.00 998 -15.75 147.36 TC -15.78 147.32 1 7 114
1960 SP EA 06:00:00 TS -16.13 146.93 146 146 O_____P__OP___ jtwc_sh SH061960 -15.80 147.50 -1 -16.62 146.09 997 -15.80 147.50 TC -15.84 147.46 1 7 114
1960 SP EA 09:00:00 TS -16.28 147.28 168 168 P_____P__PP___ SH061960 -15.99 147.87 -1 -16.68 146.40 997 -15.99 147.87 TC -16.02 147.85 1 7 118
1960 SP EA 11:00:00 TS -16.42 147.50 997 bom 183 179 P_____O__PP___ SH061960 -16.13 148.09 -1 -16.80 146.60 997 -16.13 148.09 TC -16.14 148.09 1 8 126
1960 SP EA 12:00:00 TS -16.50 147.60 188 187 O_____P__OO___ jtwc_sh SH061960 -16.20 148.20 -1 -16.92 146.68 997 -16.20 148.20 TC -16.20 148.20 1 8 139
1960 SP EA 15:00:00 TS -16.81 147.86 202 199 P_____P__PP___ SH061960 -16.40 148.52 -1 -17.42 146.87 997 -16.40 148.52 TC -16.40 148.50 1 8 143
1960 SP EA 17:00:00 TS -17.04 148.03 997 bom 206 204 P_____O__PP___ SH061960 -16.53 148.71 -1 -17.80 147.00 997 -16.53 148.71 TC -16.53 148.69 1 8 146
1960 SP EA 18:00:00 TS -17.16 148.11 213 213 O_____P__OP___ jtwc_sh SH061960 -16.60 148.80 -1 -18.01 147.06 997 -16.60 148.80 TC -16.60 148.77 1 9 147
1960 SP EA 21:00:00 TS -17.52 148.35 237 222 P_____P__PP___ SH061960 -16.80 149.05 -1 -18.63 147.28 997 -16.80 149.05 TC -16.80 149.03 1 8 143
1960 SP EA 23:00:00 TS -17.70 148.54 997 bom 222 219 P_____O__PP___ SH061960 -16.93 149.21 -1 -18.90 147.50 997 -16.93 149.21 TC -16.94 149.21 1 8 132
1960 SP EA 1959-12-29 00:00:00 TS -17.77 148.65 219 219 O_____P__OO___ jtwc_sh SH061960 -17.00 149.30 -1 -18.94 147.63 996 -17.00 149.30 TC -17.00 149.30 1 7 108
1960 SP EA 03:00:00 TS -17.86 149.03 237 237 P_____P__PP___ SH061960 -17.21 149.59 -1 -18.85 148.13 995 -17.21 149.59 TC -17.20 149.61 1 8 99
1960 SP EA 05:00:00 TS -17.87 149.34 995 bom 257 261 P_____O__PP___ SH061960 -17.34 149.79 -1 -18.70 148.60 995 -17.34 149.79 TC -17.33 149.82 1 9 93
1960 SP EA 06:00:00 TS -17.88 149.51 266 266 O_____P__OP___ jtwc_sh SH061960 -17.40 149.90 -1 -18.63 148.91 995 -17.40 149.90 TC -17.39 149.93 1 10 94
1960 SP EA 08:00:00 TS -17.91 149.85 995 bom 282 288 P_____O__PP___ SH061960 -17.51 150.13 -1 -18.50 149.50 995 -17.51 150.13 TC -17.50 150.15 1 9 96
1960 SP EA 09:00:00 TS -17.94 150.00 295 291 P_____P__PP___ SH061960 -17.56 150.24 -1 -18.48 149.70 995 -17.56 150.24 TC -17.56 150.26 1 9 101
1960 SP EA 11:00:00 TS -17.99 150.29 995 bom 301 301 P_____O__PP___ SH061960 -17.66 150.48 -1 -18.50 150.00 995 -17.66 150.48 TC -17.66 150.49 1 9 102
1960 SP EA 12:00:00 TS -18.02 150.44 307 307 O_____P__OO___ jtwc_sh SH061960 -17.70 150.60 -1 -18.52 150.18 994 -17.70 150.60 TC -17.70 150.60 1 9 104
1960 SP EA 15:00:00 TS -18.13 150.88 330 329 P_____P__PP___ SH061960 -17.81 150.95 -1 -18.63 150.77 994 -17.81 150.95 TC -17.81 150.92 1 9 104
1960 SP EA 17:00:00 TS -18.20 151.18 994 bom 344 344 P_____O__PP___ SH061960 -17.87 151.18 -1 -18.70 151.20 994 -17.87 151.18 TC -17.86 151.14 1 9 101
1960 SP EA 18:00:00 TS -18.22 151.33 352 352 O_____P__OP___ jtwc_sh SH061960 -17.90 151.30 -1 -18.71 151.42 993 -17.90 151.30 TC -17.89 151.25 1 9 96
1960 SP EA 21:00:00 TS -18.26 151.82 386 386 P_____P__PP___ SH061960 -17.96 151.63 -1 -18.71 152.13 992 -17.96 151.63 TC -17.95 151.60 1 9 94
1960 SP EA 23:00:00 TS -18.27 152.15 992 bom 421 421 P_____O__PP___ SH061960 -17.99 151.87 -1 -18.70 152.60 992 -17.99 151.87 TC -17.98 151.86 1 10 93
1960 SP EA 1959-12-30 00:00:00 TS -18.28 152.33 430 430 O_____P__OO___ jtwc_sh SH061960 -18.00 152.00 -1 -18.70 152.83 991 -18.00 152.00 TC -18.00 152.00 1 10 94
1960 SP EA 03:00:00 TS -18.32 152.88 484 484 P_____P__PP___ SH061960 -18.05 152.48 -1 -18.71 153.50 990 -18.05 152.48 TC -18.07 152.45 1 11 94
1960 SP EA 05:00:00 TS -18.34 153.25 990 bom 513 522 P_____O__PP___ SH061960 -18.08 152.83 -1 -18.70 153.90 990 -18.08 152.83 TC -18.11 152.78 1 10 93
1960 SP EA 06:00:00 TS -18.35 153.42 532 532 O_____P__OP___ jtwc_sh SH061960 -18.10 153.00 -1 -18.70 154.07 990 -18.10 153.00 TC -18.13 152.95 1 10 91
1960 SP EA 09:00:00 TS -18.35 153.93 557 557 P_____P__PP___ SH061960 -18.15 153.50 -1 -18.66 154.54 990 -18.15 153.50 TC -18.18 153.47 1 10 90
1960 SP EA 11:00:00 TS -18.34 154.28 990 bom 592 592 P_____O__PP___ SH061960 -18.18 153.83 -1 -18.60 154.90 990 -18.18 153.83 TC -18.19 153.82 1 10 87
1960 SP EA 12:00:00 TS -18.33 154.47 605 605 O_____P__OO___ jtwc_sh SH061960 -18.20 154.00 -1 -18.55 155.14 990 -18.20 154.00 TC -18.20 154.00 1 11 87
1960 SP EA 15:00:00 TS -18.30 155.07 648 648 P_____P__PP___ SH061960 -18.27 154.49 -1 -18.33 155.94 990 -18.27 154.49 TC -18.26 154.44 1 12 86
1960 SP EA 17:00:00 TS -18.27 155.49 990 bom 678 678 P_____O__PP___ SH061960 -18.30 154.83 -1 -18.20 156.50 990 -18.30 154.83 TC -18.28 154.75 1 12 85
1960 SP EA 18:00:00 TS -18.25 155.69 701 701 O_____P__OP___ jtwc_sh SH061960 -18.30 155.00 -1 -18.15 156.76 990 -18.30 155.00 TC -18.28 154.90 1 12 84
1960 SP EA 21:00:00 TS -18.18 156.30 748 748 P_____P__PP___ SH061960 -18.26 155.49 -1 -18.05 157.51 990 -18.26 155.49 TC -18.24 155.44 1 12 82
1960 SP EA 23:00:00 TS -18.10 156.73 990 bom 787 785 P_____O__PP___ SH061960 -18.17 155.87 -1 -18.00 158.00 990 -18.17 155.87 TC -18.16 155.86 1 13 79
1960 SP EA 1959-12-31 00:00:00 TS -18.06 156.97 775 714 O_____P__OO___ jtwc_sh SH061960 -18.10 156.10 -1 -17.98 158.25 990 -18.10 156.10 TC -18.10 156.10 1 15 76
1960 SP EA 03:00:00 TS -17.85 157.77 704 666 P_____P__PP___ SH061960 -17.80 156.93 -1 -17.93 159.00 990 -17.80 156.93 TC -17.80 156.94 1 16 74
1960 SP EA 05:00:00 TS -17.69 158.35 990 bom 666 643 P_____O__PP___ SH061960 -17.54 157.56 -1 -17.90 159.50 990 -17.54 157.56 TC -17.53 157.57 1 18 73
1960 SP EA 06:00:00 TS -17.59 158.65 643 580 O_____P__OP___ jtwc_sh SH061960 -17.40 157.90 -1 -17.88 159.75 990 -17.40 157.90 TC -17.39 157.90 1 18 72
1960 SP EA 09:00:00 TS -17.31 159.57 571 536 P_____P__PP___ SH061960 -16.96 158.93 -1 -17.83 160.49 990 -16.96 158.93 TC -16.94 158.93 1 19 72
1960 SP MM 11:00:00 TS -17.11 160.20 990 bom 536 521 P_____O__PP___ SH061960 -16.65 159.64 -1 -17.80 161.00 990 -16.65 159.64 TC -16.64 159.64 1 19 72
1960 SP MM 12:00:00 TS -17.02 160.51 521 484 O_____P__OO___ jtwc_sh SH061960 -16.50 160.00 -1 -17.79 161.27 990 -16.50 160.00 TC -16.50 160.00 1 19 70
1960 SP MM 15:00:00 TS -16.68 161.41 484 469 P_____P__PP___ SH061960 -16.07 161.05 -1 -17.74 162.08 990 -16.07 161.05 TC -16.02 160.99 1 19 68
1960 SP MM 17:00:00 TS -16.42 162.01 990 bom 479 474 P_____O__PP___ SH061960 -15.81 161.75 -1 -17.70 162.60 990 -15.81 161.75 TC -15.73 161.66 1 19 58
1960 SP MM 18:00:00 TS -16.17 162.26 468 376 O_____P__OP___ jtwc_sh SH061960 -15.70 162.10 -1 -17.67 162.85 990 -15.70 162.10 TC -15.59 162.00 1 20 55
1960 SP MM 21:00:00 TS -15.65 163.16 365 297 P_____P__PP___ SH061960 -15.35 163.11 -1 -17.57 163.55 990 -15.35 163.11 TC -15.29 163.06 1 20 63
1960 SP MM 23:00:00 TS -15.39 163.83 990 bom 297 261 P_____O__PP___ SH061960 -15.22 163.82 -1 -17.50 164.00 990 -15.22 163.82 TC -15.20 163.81 1 22 66
1960 SP MM 1960-01-01 00:00:00 TS -15.20 164.20 251 128 O________OO___ jtwc_sh SH061960 -15.20 164.20 -1 -15.20 164.20 TC -15.20 164.20 1 24 88
1960 SP MM 03:00:00 TS -15.34 165.47 118 0 P________PP___ SH061960 -15.31 165.46 -1 -15.31 165.46 TC -15.39 165.51 1 26 102
1960 SP MM 06:00:00 TS -15.73 166.83 0 0 O________OP___ jtwc_sh SH061960 -15.70 166.80 -1 -15.70 166.80 TC -15.80 166.88 1 28 110
1960 SP MM 09:00:00 TS -16.31 168.21 42 42 P________PP___ SH061960 -16.28 168.19 -1 -16.28 168.19 TC -16.35 168.24 1 29 116
1960 SP MM 12:00:00 TS -17.00 169.50 186 186 O________OO___ jtwc_sh SH061960 -17.00 169.50 -1 -17.00 169.50 TC -17.00 169.50 1 27 121
1960 SP MM 15:00:00 TS -17.67 170.62 322 322 P________PP___ SH061960 -17.69 170.63 -1 -17.69 170.63 TC -17.63 170.59 1 24 125
1960 SP MM 18:00:00 TS -18.38 171.59 450 450 O________OP___ jtwc_sh SH061960 -18.40 171.60 -1 -18.40 171.60 TC -18.33 171.57 1 23 129
1960 SP MM 21:00:00 TS -19.09 172.46 510 466 P________PP___ SH061960 -19.11 172.47 -1 -19.11 172.47 TC -19.06 172.43 1 21 133
1960 SP MM 1960-01-02 00:00:00 TS -19.80 173.20 466 446 O________OO___ jtwc_sh SH061960 -19.80 173.20 -1 -19.80 173.20 TC -19.80 173.20 1 19 136
1960 SP MM 03:00:00 TS -20.46 173.86 445 443 P________PP___ SH061960 -20.45 173.83 -1 -20.45 173.83 TC -20.48 173.90 1 18 139
1960 SP MM 06:00:00 TS -21.12 174.44 452 452 O________OP___ jtwc_sh SH061960 -21.10 174.40 -1 -21.10 174.40 TC -21.15 174.52 1 17 141
1960 SP MM 09:00:00 TS -21.81 175.03 478 473 P________PP___ SH061960 -21.80 175.01 -1 -21.80 175.01 TC -21.83 175.07 1 18 142
1960 SP MM 12:00:00 TS -22.50 175.60 523 523 O________OO___ jtwc_sh SH061960 -22.50 175.60 -1 -22.50 175.60 TC -22.50 175.60 1 17 142
1960 SP MM 15:00:00 TS -23.16 176.15 575 575 P________PP___ SH061960 -23.15 176.16 -1 -23.15 176.16 TC -23.17 176.14 1 17 143
1960 SP MM 18:00:00 TS -23.82 176.69 627 627 O________OP___ jtwc_sh SH061960 -23.80 176.70 -1 -23.80 176.70 TC -23.85 176.68 1 17 143
1960 SP MM 21:00:00 TS -24.50 177.24 697 696 P________PP___ SH061960 -24.49 177.25 -1 -24.49 177.25 TC -24.53 177.24 1 17 144
1960 SP MM 1960-01-03 00:00:00 TS -25.20 177.80 771 O________OO___ jtwc_sh SH061960 -25.20 177.80 -1 -25.20 177.80 TC -25.20 177.80 1 17 144